createdAt,value
2023-06-19T05:11:37.830Z,24.81
2023-06-19T05:13:40.726Z,25.12
2023-06-19T05:15:43.607Z,25.35
2023-06-19T05:17:47.765Z,25.50
2023-06-19T05:19:51.454Z,25.62
2023-06-19T05:21:54.312Z,25.73
2023-06-19T05:23:57.191Z,25.83
2023-06-19T05:25:59.984Z,25.91
2023-06-19T05:28:06.160Z,25.96
2023-06-19T05:30:10.457Z,26.01
2023-06-19T05:32:13.346Z,26.10
2023-06-19T05:34:16.262Z,26.23
2023-06-19T05:36:19.195Z,26.33
2023-06-19T05:38:22.142Z,26.44
2023-06-19T05:40:25.115Z,26.50
2023-06-19T05:42:28.197Z,26.53
2023-06-19T05:44:32.378Z,26.58
2023-06-19T05:46:35.226Z,26.62
2023-06-19T05:48:38.065Z,26.67
2023-06-19T05:50:40.909Z,26.75
2023-06-19T05:52:44.440Z,26.81
2023-06-19T05:54:47.322Z,26.85
2023-06-19T05:56:51.585Z,26.89
2023-06-19T05:58:54.430Z,26.93
2023-06-19T06:00:59.789Z,26.96
2023-06-19T06:03:03.364Z,26.99
2023-06-19T06:05:07.262Z,27.01
2023-06-19T06:07:10.564Z,27.02
2023-06-19T06:09:14.147Z,27.04
2023-06-19T06:11:17.061Z,27.04
2023-06-19T06:13:20.404Z,27.06
2023-06-19T06:15:23.436Z,27.09
2023-06-19T06:17:27.664Z,27.16
2023-06-19T06:19:33.031Z,27.20
2023-06-19T06:21:36.149Z,27.24
2023-06-19T06:23:39.228Z,27.28
2023-06-19T06:25:42.141Z,27.31
2023-06-19T06:27:45.350Z,27.34
2023-06-19T06:29:48.134Z,27.37
2023-06-19T06:31:53.605Z,27.40
2023-06-19T06:33:57.896Z,27.42
2023-06-19T06:36:00.796Z,27.48
2023-06-19T06:38:03.780Z,27.56
2023-06-19T06:40:10.318Z,27.60
2023-06-19T06:42:12.933Z,27.65
2023-06-19T06:44:15.931Z,27.69
2023-06-19T06:46:18.834Z,27.73
2023-06-19T06:48:22.595Z,27.78
2023-06-19T06:50:27.169Z,27.82
2023-06-19T06:52:32.040Z,27.84
2023-06-19T06:54:35.028Z,27.90
2023-06-19T06:56:38.130Z,27.94
2023-06-19T06:58:42.156Z,27.96
2023-06-19T07:00:45.127Z,27.98
2023-06-19T07:02:49.288Z,28.01
2023-06-19T07:04:53.459Z,28.03
2023-06-19T07:06:59.102Z,28.04
2023-06-19T07:09:02.073Z,27.99
2023-06-19T07:11:08.066Z,27.96
2023-06-19T07:13:10.908Z,27.93
2023-06-19T07:15:14.011Z,27.93
2023-06-19T07:17:19.004Z,27.91
2023-06-19T07:19:23.281Z,27.90
2023-06-19T07:21:26.764Z,27.88
2023-06-19T07:23:31.139Z,27.87
2023-06-19T07:25:34.961Z,27.85
2023-06-19T07:27:37.860Z,27.82
2023-06-19T07:29:40.660Z,27.82
2023-06-19T07:31:44.730Z,27.80
2023-06-19T07:33:47.622Z,27.81
2023-06-19T07:35:50.416Z,27.82
2023-06-19T07:37:53.458Z,27.83
2023-06-19T07:40:04.773Z,27.80
2023-06-19T07:42:08.121Z,27.79
2023-06-19T07:44:11.016Z,27.74
2023-06-19T07:46:14.354Z,27.67
2023-06-19T07:48:18.130Z,27.65
2023-06-19T07:50:21.591Z,27.63
2023-06-19T07:52:25.073Z,27.60
2023-06-19T07:54:28.096Z,27.58
2023-06-19T07:56:33.609Z,27.54
2023-06-19T07:58:38.784Z,27.50
2023-06-19T08:00:41.773Z,27.46
2023-06-19T08:02:44.959Z,27.45
2023-06-19T08:04:48.234Z,27.49
2023-06-19T08:06:51.304Z,27.53
2023-06-19T08:08:54.032Z,27.55
2023-06-19T08:10:59.762Z,27.53
2023-06-19T08:13:04.091Z,27.58
2023-06-19T08:15:10.257Z,27.56
2023-06-19T08:17:13.144Z,27.58
2023-06-19T08:19:16.238Z,27.61
2023-06-19T08:21:19.345Z,27.65
2023-06-19T08:23:22.439Z,27.71
2023-06-19T08:25:25.405Z,27.73
2023-06-19T08:27:28.396Z,27.72
2023-06-19T08:29:35.222Z,27.69
2023-06-19T08:31:38.156Z,27.70
2023-06-19T08:33:41.300Z,27.72
2023-06-19T08:35:45.531Z,27.73
2023-06-19T08:37:48.438Z,27.74
2023-06-19T08:39:51.453Z,27.71
2023-06-19T08:41:55.110Z,27.72
2023-06-19T08:43:59.124Z,27.71
2023-06-19T08:46:11.776Z,27.70
2023-06-19T08:48:18.717Z,27.73
2023-06-19T08:50:22.351Z,27.76
2023-06-19T08:52:25.624Z,27.75
2023-06-19T08:54:28.537Z,27.76
2023-06-19T08:56:34.977Z,27.76
2023-06-19T08:58:38.257Z,27.78
2023-06-19T09:00:41.379Z,27.76
2023-06-19T09:02:54.786Z,27.78
2023-06-19T09:05:13.693Z,27.81
2023-06-19T09:07:16.938Z,27.83
2023-06-19T09:09:22.501Z,27.87
2023-06-19T09:11:25.375Z,27.90
2023-06-19T09:13:29.793Z,27.87
2023-06-19T09:15:34.006Z,27.85
2023-06-19T09:17:36.966Z,27.84
2023-06-19T09:19:50.054Z,27.87
2023-06-19T09:21:54.010Z,27.89
2023-06-19T09:24:25.065Z,27.93
2023-06-19T09:26:30.773Z,27.84
2023-06-19T09:28:37.461Z,27.91
2023-06-19T09:30:41.651Z,27.98
2023-06-19T09:32:45.334Z,27.96
2023-06-19T09:34:52.203Z,27.94
2023-06-19T09:36:56.159Z,27.90
2023-06-19T09:39:01.765Z,27.95
2023-06-19T09:41:08.379Z,27.97
2023-06-19T09:43:12.876Z,27.91
2023-06-19T09:45:20.097Z,27.91
2023-06-19T09:47:27.362Z,27.94
2023-06-19T09:49:34.435Z,27.95
2023-06-19T09:51:45.718Z,27.93
2023-06-19T09:53:50.238Z,27.93
2023-06-19T09:55:53.407Z,27.89
2023-06-19T09:58:33.682Z,27.85
2023-06-19T10:00:38.241Z,27.81
2023-06-19T10:02:43.156Z,27.81
2023-06-19T10:04:47.995Z,27.79
2023-06-19T10:06:52.451Z,27.80
2023-06-19T10:08:55.698Z,27.77
2023-06-19T10:10:59.583Z,27.78
2023-06-19T10:13:14.877Z,27.76
2023-06-19T10:15:19.916Z,27.77
2023-06-19T10:17:23.188Z,27.75
2023-06-19T10:19:27.043Z,27.73
2023-06-19T10:21:30.588Z,27.73
2023-06-19T10:23:38.651Z,27.72
2023-06-19T10:25:42.969Z,27.68
2023-06-19T10:27:46.475Z,27.73
2023-06-19T10:30:08.418Z,27.72
2023-06-19T10:32:24.945Z,27.70
2023-06-19T10:34:36.035Z,27.66
2023-06-19T10:36:42.204Z,27.71
2023-06-19T10:38:49.202Z,27.72
2023-06-19T10:40:53.095Z,27.71
2023-06-19T10:42:58.033Z,27.72
2023-06-19T10:45:08.908Z,27.69
2023-06-19T10:47:12.334Z,27.74
2023-06-19T10:49:15.530Z,27.69
2023-06-19T10:51:21.452Z,27.71
2023-06-19T10:53:29.709Z,27.74
2023-06-19T10:55:36.953Z,27.78
2023-06-19T10:57:42.621Z,27.83
2023-06-19T10:59:46.167Z,27.84
2023-06-19T11:01:53.673Z,27.89
2023-06-19T11:03:57.140Z,27.89
2023-06-19T11:06:03.917Z,27.88
2023-06-19T11:08:07.779Z,27.96
2023-06-19T11:10:23.886Z,28.02
2023-06-19T11:12:33.403Z,28.04
2023-06-19T11:14:46.649Z,28.04
2023-06-19T11:16:52.906Z,28.08
2023-06-19T11:18:59.234Z,28.07
2023-06-19T11:21:05.417Z,28.09
2023-06-19T11:23:08.956Z,28.11
2023-06-19T11:25:15.518Z,28.09
2023-06-19T11:27:28.754Z,28.14
2023-06-19T11:29:37.838Z,28.18
2023-06-19T11:31:41.525Z,28.19
2023-06-19T11:33:57.882Z,28.16
2023-06-19T11:36:04.370Z,28.19
2023-06-19T11:38:07.613Z,28.22
2023-06-19T11:40:16.434Z,28.23
2023-06-19T11:42:21.993Z,28.23
2023-06-19T11:44:29.676Z,28.22
2023-06-19T11:46:38.968Z,28.18
2023-06-19T11:48:53.243Z,28.08
2023-06-19T11:51:06.738Z,28.17
2023-06-19T11:53:15.832Z,28.16
2023-06-19T11:55:24.928Z,28.19
2023-06-19T11:57:37.190Z,28.18
2023-06-19T11:59:45.574Z,28.19
2023-06-19T12:02:04.058Z,28.17
2023-06-19T12:04:11.041Z,28.12
2023-06-19T12:06:14.946Z,28.16
2023-06-19T12:08:18.526Z,28.14
2023-06-19T12:10:22.781Z,28.17
2023-06-19T12:12:27.200Z,28.18
2023-06-19T12:14:30.850Z,28.17
2023-06-19T12:16:37.211Z,28.14
2023-06-19T12:18:42.472Z,28.07
2023-06-19T12:20:51.188Z,28.11
2023-06-19T12:22:55.367Z,28.08
2023-06-19T12:24:58.588Z,28.06
2023-06-19T12:27:01.852Z,28.00
2023-06-19T12:29:04.965Z,28.05
2023-06-19T12:31:07.987Z,28.04
2023-06-19T12:33:13.427Z,28.04
2023-06-19T12:35:19.200Z,28.03
2023-06-19T12:37:22.731Z,28.02
2023-06-19T12:39:26.200Z,28.03
2023-06-19T12:41:29.821Z,28.02
2023-06-19T12:43:35.469Z,28.04
2023-06-19T12:45:38.391Z,28.04
2023-06-19T12:47:41.502Z,28.03
2023-06-19T12:49:44.638Z,28.03
2023-06-19T12:51:52.514Z,28.04
2023-06-19T12:53:55.695Z,28.03
2023-06-19T12:56:02.631Z,28.04
2023-06-19T12:58:08.004Z,28.02
2023-06-19T13:00:13.933Z,28.00
2023-06-19T13:02:16.946Z,28.00
2023-06-19T13:04:20.191Z,28.02
2023-06-19T13:06:23.239Z,28.03
2023-06-19T13:08:27.935Z,28.02
2023-06-19T13:10:30.835Z,28.03
2023-06-19T13:12:33.824Z,28.04
2023-06-19T13:14:41.387Z,28.04
2023-06-19T13:16:47.231Z,28.05
2023-06-19T13:18:50.725Z,28.05
2023-06-19T13:20:53.643Z,28.05
2023-06-19T13:22:56.838Z,28.06
2023-06-19T13:25:01.037Z,28.08
2023-06-19T13:27:04.215Z,28.07
2023-06-19T13:29:07.120Z,28.09
2023-06-19T13:31:10.165Z,28.10
2023-06-19T13:33:13.241Z,28.10
2023-06-19T13:35:16.557Z,28.11
2023-06-19T13:37:19.424Z,28.12
2023-06-19T13:39:22.355Z,28.12
2023-06-19T13:41:28.083Z,28.12
2023-06-19T13:43:31.537Z,28.13
2023-06-19T13:45:34.959Z,28.13
2023-06-19T13:47:41.849Z,28.14
2023-06-19T13:49:44.743Z,28.18
2023-06-19T13:51:47.573Z,28.20
2023-06-19T13:53:51.543Z,28.22
2023-06-19T13:55:54.663Z,28.23
2023-06-19T13:57:59.221Z,28.24
2023-06-19T14:00:02.626Z,28.25
2023-06-19T14:02:06.033Z,28.24
2023-06-19T14:04:09.687Z,28.24
2023-06-19T14:06:18.616Z,28.23
2023-06-19T14:08:21.896Z,28.24
2023-06-19T14:10:24.921Z,28.23
2023-06-19T14:12:28.598Z,28.24
2023-06-19T14:14:33.309Z,28.23
2023-06-19T14:16:36.576Z,28.22
2023-06-19T14:18:39.676Z,28.22
2023-06-19T14:20:43.433Z,28.22
2023-06-19T14:22:46.208Z,28.23
2023-06-19T14:24:49.364Z,28.23
2023-06-19T14:26:54.734Z,28.25
2023-06-19T14:29:07.293Z,28.26
2023-06-19T14:31:12.302Z,28.26
2023-06-19T14:33:17.127Z,28.26
2023-06-19T14:35:20.456Z,28.26
2023-06-19T14:37:36.882Z,28.27
2023-06-19T14:39:40.166Z,28.27
2023-06-19T14:41:43.819Z,28.29
2023-06-19T14:43:46.701Z,28.28
2023-06-19T14:45:49.669Z,28.28
2023-06-19T14:47:54.044Z,28.30
2023-06-19T14:49:57.073Z,28.31
2023-06-19T14:52:00.065Z,28.34
2023-06-19T14:54:03.808Z,28.33
2023-06-19T14:56:08.357Z,28.34
2023-06-19T14:58:11.376Z,28.35
2023-06-19T15:00:15.269Z,28.36
2023-06-19T15:02:18.314Z,28.37
2023-06-19T15:04:23.919Z,28.36
2023-06-19T15:06:27.714Z,28.36
2023-06-19T15:08:32.419Z,28.37
2023-06-19T15:10:36.157Z,28.37
2023-06-19T15:12:39.032Z,28.37
2023-06-19T15:14:42.235Z,28.39
2023-06-19T15:16:45.094Z,28.37
2023-06-19T15:18:48.133Z,28.40
2023-06-19T15:20:52.496Z,28.38
2023-06-19T15:22:55.486Z,28.40
2023-06-19T15:24:58.369Z,28.42
2023-06-19T15:27:02.359Z,28.41
2023-06-19T15:29:05.231Z,28.41
2023-06-19T15:31:09.510Z,28.41
2023-06-19T15:33:12.455Z,28.44
2023-06-19T15:35:15.468Z,28.45
2023-06-19T15:37:19.617Z,28.45
2023-06-19T15:39:22.452Z,28.46
2023-06-19T15:41:26.219Z,28.47
2023-06-19T15:43:31.779Z,28.48
2023-06-19T15:45:36.301Z,28.48
2023-06-19T15:47:39.517Z,28.49
2023-06-19T15:49:47.258Z,28.49
2023-06-19T15:51:50.059Z,28.52
2023-06-19T15:53:54.723Z,28.53
2023-06-19T15:55:57.774Z,28.53
2023-06-19T15:58:03.129Z,28.56
2023-06-19T16:00:07.575Z,28.57
2023-06-19T16:02:10.494Z,28.58
2023-06-19T16:04:13.416Z,28.58
2023-06-19T16:06:16.506Z,28.60
2023-06-19T16:08:19.758Z,28.60
2023-06-19T16:10:24.349Z,28.62
2023-06-19T16:12:27.618Z,28.62
2023-06-19T16:14:30.421Z,28.64
2023-06-19T16:16:33.287Z,28.64
2023-06-19T16:18:36.273Z,28.64
2023-06-19T16:20:39.274Z,28.65
2023-06-19T16:22:42.096Z,28.66
2023-06-19T16:24:45.017Z,28.67
2023-06-19T16:26:49.295Z,28.69
2023-06-19T16:28:52.852Z,28.69
2023-06-19T16:30:55.847Z,28.69
2023-06-19T16:32:58.852Z,28.71
2023-06-19T16:35:01.693Z,28.69
2023-06-19T16:37:04.691Z,28.72
2023-06-19T16:39:08.285Z,28.73
2023-06-19T16:41:11.034Z,28.74
2023-06-19T16:43:16.135Z,28.75
2023-06-19T16:45:19.029Z,28.75
2023-06-19T16:47:22.115Z,28.77
2023-06-19T16:49:25.342Z,28.78
2023-06-19T16:51:28.104Z,28.78
2023-06-19T16:53:30.982Z,28.79
2023-06-19T16:55:34.186Z,28.80
2023-06-19T16:57:37.022Z,28.80
2023-06-19T16:59:41.184Z,28.81
2023-06-19T17:01:44.603Z,28.80
2023-06-19T17:03:47.405Z,28.82
2023-06-19T17:05:50.376Z,28.82
2023-06-19T17:07:53.577Z,28.82
2023-06-19T17:09:56.657Z,28.81
2023-06-19T17:11:59.434Z,28.81
2023-06-19T17:14:02.625Z,28.79
2023-06-19T17:16:06.913Z,28.75
2023-06-19T17:18:10.443Z,28.74
2023-06-19T17:20:14.564Z,28.70
2023-06-19T17:22:17.589Z,28.69
2023-06-19T17:24:22.264Z,28.67
2023-06-19T17:26:25.161Z,28.68
2023-06-19T17:28:28.210Z,28.68
2023-06-19T17:30:31.278Z,28.68
2023-06-19T17:32:35.471Z,28.68
2023-06-19T17:34:38.577Z,28.68
2023-06-19T17:36:41.893Z,28.68
2023-06-19T17:38:44.928Z,28.65
2023-06-19T17:40:48.776Z,28.65
2023-06-19T17:42:51.817Z,28.65
2023-06-19T17:44:54.812Z,28.66
2023-06-19T17:46:58.295Z,28.65
2023-06-19T17:49:02.917Z,28.65
2023-06-19T17:51:06.723Z,28.67
2023-06-19T17:53:09.715Z,28.68
2023-06-19T17:55:14.321Z,28.68
2023-06-19T17:57:17.783Z,28.69
2023-06-19T17:59:20.688Z,28.69
2023-06-19T18:01:26.631Z,28.68
2023-06-19T18:03:31.585Z,28.68
2023-06-19T18:05:39.570Z,28.66
2023-06-19T18:07:42.729Z,28.64
2023-06-19T18:09:48.196Z,28.63
2023-06-19T18:11:51.667Z,28.62
2023-06-19T18:13:55.101Z,28.61
2023-06-19T18:16:11.284Z,28.59
2023-06-19T18:18:15.529Z,28.60
2023-06-19T18:20:19.054Z,28.59
2023-06-19T18:22:23.412Z,28.59
2023-06-19T18:24:26.809Z,28.58
2023-06-19T18:26:30.668Z,28.59
2023-06-19T18:28:34.458Z,28.57
2023-06-19T18:30:37.320Z,28.55
2023-06-19T18:32:40.555Z,28.56
2023-06-19T18:34:43.471Z,28.55
2023-06-19T18:36:46.372Z,28.56
2023-06-19T18:38:51.273Z,28.56
2023-06-19T18:40:55.197Z,28.55
2023-06-19T18:42:58.272Z,28.53
2023-06-19T18:45:01.269Z,28.53
2023-06-19T18:47:04.713Z,28.52
2023-06-19T18:49:08.033Z,28.51
2023-06-19T18:51:11.112Z,28.51
2023-06-19T18:53:14.237Z,28.50
2023-06-19T18:55:19.748Z,28.49
2023-06-19T18:57:28.676Z,28.48
2023-06-19T18:59:31.790Z,28.48
2023-06-19T19:01:35.184Z,28.47
2023-06-19T19:03:38.366Z,28.48
2023-06-19T19:05:41.813Z,28.48
2023-06-19T19:07:45.123Z,28.47
2023-06-19T19:09:48.209Z,28.48
2023-06-19T19:11:54.136Z,28.48
2023-06-19T19:13:58.347Z,28.48
2023-06-19T19:16:01.241Z,28.48
2023-06-19T19:18:04.712Z,28.48
2023-06-19T19:20:10.989Z,28.47
2023-06-19T19:22:14.530Z,28.46
2023-06-19T19:24:18.376Z,28.46
2023-06-19T19:26:21.901Z,28.46
2023-06-19T19:28:26.728Z,28.46
2023-06-19T19:30:30.919Z,28.46
2023-06-19T19:32:34.034Z,28.47
2023-06-19T19:34:37.392Z,28.45
2023-06-19T19:36:41.762Z,28.46
2023-06-19T19:38:45.531Z,28.46
2023-06-19T19:40:48.594Z,28.47
2023-06-19T19:42:52.058Z,28.45
2023-06-19T19:44:56.558Z,28.45
2023-06-19T19:46:59.658Z,28.46
2023-06-19T19:49:03.171Z,28.45
2023-06-19T19:51:06.036Z,28.47
2023-06-19T19:53:08.791Z,28.47
2023-06-19T19:55:15.042Z,28.46
2023-06-19T19:57:18.559Z,28.46
2023-06-19T19:59:21.762Z,28.46
2023-06-19T20:01:26.573Z,28.47
2023-06-19T20:03:30.337Z,28.46
2023-06-19T20:05:33.307Z,28.44
2023-06-19T20:07:36.222Z,28.45
2023-06-19T20:09:39.528Z,28.44
2023-06-19T20:11:45.710Z,28.45
2023-06-19T20:13:50.044Z,28.46
2023-06-19T20:15:53.177Z,28.45
2023-06-19T20:17:58.058Z,28.45
2023-06-19T20:20:03.401Z,28.45
2023-06-19T20:22:07.348Z,28.46
2023-06-19T20:24:10.910Z,28.45
2023-06-19T20:26:15.053Z,28.45
2023-06-19T20:28:18.878Z,28.44
2023-06-19T20:30:22.208Z,28.44
2023-06-19T20:32:25.158Z,28.43
2023-06-19T20:34:30.271Z,28.40
2023-06-19T20:36:32.829Z,28.38
2023-06-19T20:38:38.383Z,28.36
2023-06-19T20:40:42.162Z,28.33
2023-06-19T20:42:46.601Z,28.31
2023-06-19T20:44:51.490Z,28.30
2023-06-19T20:46:54.409Z,28.29
2023-06-19T20:48:58.084Z,28.26
2023-06-19T20:51:02.258Z,28.22
2023-06-19T20:53:05.779Z,28.18
2023-06-19T20:55:09.974Z,28.13
2023-06-19T20:57:12.767Z,28.10
2023-06-19T20:59:15.724Z,28.05
2023-06-19T21:01:24.391Z,28.01
2023-06-19T21:03:29.417Z,27.99
2023-06-19T21:05:32.446Z,27.97
2023-06-19T21:07:37.070Z,27.92
2023-06-19T21:09:40.976Z,27.83
2023-06-19T21:11:44.361Z,27.79
2023-06-19T21:13:48.072Z,27.78
2023-06-19T21:15:51.568Z,27.75
2023-06-19T21:17:55.083Z,27.70
2023-06-19T21:19:58.627Z,27.66
2023-06-19T21:22:02.148Z,27.64
2023-06-19T21:24:08.384Z,27.62
2023-06-19T21:26:11.433Z,27.64
